sensor_id;sensor_type;location;lat;lon;timestamp;temperature;humidity
17483;DHT22;8858;52.308;20.994;2023-11-19T00:00:43;2.30;99.90
17483;DHT22;8858;52.308;20.994;2023-11-19T00:03:21;2.20;99.90
17483;DHT22;8858;52.308;20.994;2023-11-19T00:05:51;2.20;99.90
17483;DHT22;8858;52.308;20.994;2023-11-19T00:08:20;2.20;99.90
17483;DHT22;8858;52.308;20.994;2023-11-19T00:10:48;2.20;99.90
17483;DHT22;8858;52.308;20.994;2023-11-19T00:13:17;2.20;99.90
17483;DHT22;8858;52.308;20.994;2023-11-19T00:15:47;2.20;99.90
17483;DHT22;8858;52.308;20.994;2023-11-19T00:18:18;2.30;99.90
17483;DHT22;8858;52.308;20.994;2023-11-19T00:20:49;2.30;99.90
17483;DHT22;8858;52.308;20.994;2023-11-19T00:23:18;2.30;99.90
17483;DHT22;8858;52.308;20.994;2023-11-19T00:25:46;2.30;99.90
17483;DHT22;8858;52.308;20.994;2023-11-19T00:28:15;2.30;99.90
17483;DHT22;8858;52.308;20.994;2023-11-19T00:30:46;2.30;99.90
17483;DHT22;8858;52.308;20.994;2023-11-19T00:33:15;2.30;99.90
17483;DHT22;8858;52.308;20.994;2023-11-19T00:35:44;2.30;99.90
17483;DHT22;8858;52.308;20.994;2023-11-19T00:38:14;2.30;99.90
17483;DHT22;8858;52.308;20.994;2023-11-19T00:40:44;2.30;99.90
17483;DHT22;8858;52.308;20.994;2023-11-19T00:43:15;2.30;99.90
17483;DHT22;8858;52.308;20.994;2023-11-19T00:45:45;2.30;99.90
17483;DHT22;8858;52.308;20.994;2023-11-19T00:48:14;2.30;99.90
17483;DHT22;8858;52.308;20.994;2023-11-19T00:50:43;2.30;99.90
17483;DHT22;8858;52.308;20.994;2023-11-19T00:53:13;2.30;99.90
17483;DHT22;8858;52.308;20.994;2023-11-19T00:55:43;2.30;99.90
17483;DHT22;8858;52.308;20.994;2023-11-19T00:58:13;2.30;99.90
17483;DHT22;8858;52.308;20.994;2023-11-19T01:00:41;2.30;99.90
17483;DHT22;8858;52.308;20.994;2023-11-19T01:03:10;2.30;99.90
17483;DHT22;8858;52.308;20.994;2023-11-19T01:05:41;2.30;99.90
17483;DHT22;8858;52.308;20.994;2023-11-19T01:08:09;2.30;99.90
17483;DHT22;8858;52.308;20.994;2023-11-19T01:10:39;2.30;99.90
17483;DHT22;8858;52.308;20.994;2023-11-19T01:13:08;2.40;99.90
17483;DHT22;8858;52.308;20.994;2023-11-19T01:15:37;2.30;99.90
17483;DHT22;8858;52.308;20.994;2023-11-19T01:18:07;2.30;99.90
17483;DHT22;8858;52.308;20.994;2023-11-19T01:21:01;2.30;99.90
17483;DHT22;8858;52.308;20.994;2023-11-19T01:23:31;2.40;99.90
17483;DHT22;8858;52.308;20.994;2023-11-19T01:26:01;2.40;99.90
17483;DHT22;8858;52.308;20.994;2023-11-19T01:28:31;2.40;99.90
17483;DHT22;8858;52.308;20.994;2023-11-19T01:31:00;2.40;99.90
17483;DHT22;8858;52.308;20.994;2023-11-19T01:33:32;2.40;99.90
17483;DHT22;8858;52.308;20.994;2023-11-19T01:36:01;2.40;99.90
17483;DHT22;8858;52.308;20.994;2023-11-19T01:38:31;2.40;99.90
17483;DHT22;8858;52.308;20.994;2023-11-19T01:41:01;2.40;99.90
17483;DHT22;8858;52.308;20.994;2023-11-19T01:43:34;2.40;99.90
17483;DHT22;8858;52.308;20.994;2023-11-19T01:46:04;2.40;99.90
17483;DHT22;8858;52.308;20.994;2023-11-19T01:48:39;2.40;99.90
17483;DHT22;8858;52.308;20.994;2023-11-19T01:51:09;2.40;99.90
17483;DHT22;8858;52.308;20.994;2023-11-19T01:53:39;2.40;99.90
17483;DHT22;8858;52.308;20.994;2023-11-19T01:56:13;2.40;99.90
17483;DHT22;8858;52.308;20.994;2023-11-19T01:58:44;2.40;99.90
17483;DHT22;8858;52.308;20.994;2023-11-19T02:01:13;2.40;99.90
17483;DHT22;8858;52.308;20.994;2023-11-19T02:03:43;2.40;99.90
17483;DHT22;8858;52.308;20.994;2023-11-19T02:06:13;2.40;99.90
17483;DHT22;8858;52.308;20.994;2023-11-19T02:08:44;2.40;99.90
17483;DHT22;8858;52.308;20.994;2023-11-19T02:11:13;2.40;99.90
17483;DHT22;8858;52.308;20.994;2023-11-19T02:13:43;2.40;99.90
17483;DHT22;8858;52.308;20.994;2023-11-19T02:16:11;2.40;99.90
17483;DHT22;8858;52.308;20.994;2023-11-19T02:18:39;2.40;99.90
17483;DHT22;8858;52.308;20.994;2023-11-19T02:21:10;2.40;99.90
17483;DHT22;8858;52.308;20.994;2023-11-19T02:23:42;2.40;99.90
17483;DHT22;8858;52.308;20.994;2023-11-19T02:26:18;2.40;99.90
17483;DHT22;8858;52.308;20.994;2023-11-19T02:28:56;2.40;99.90
17483;DHT22;8858;52.308;20.994;2023-11-19T02:31:24;2.40;99.90
17483;DHT22;8858;52.308;20.994;2023-11-19T02:33:54;2.40;99.90
17483;DHT22;8858;52.308;20.994;2023-11-19T02:36:23;2.40;99.90
17483;DHT22;8858;52.308;20.994;2023-11-19T02:38:51;2.40;99.90
17483;DHT22;8858;52.308;20.994;2023-11-19T02:41:19;2.40;99.90
17483;DHT22;8858;52.308;20.994;2023-11-19T02:43:48;2.40;99.90
17483;DHT22;8858;52.308;20.994;2023-11-19T02:46:19;2.40;99.90
17483;DHT22;8858;52.308;20.994;2023-11-19T02:48:47;2.40;99.90
17483;DHT22;8858;52.308;20.994;2023-11-19T02:51:16;2.40;99.90
17483;DHT22;8858;52.308;20.994;2023-11-19T02:53:47;2.50;99.90
17483;DHT22;8858;52.308;20.994;2023-11-19T02:56:16;2.50;99.90
17483;DHT22;8858;52.308;20.994;2023-11-19T02:58:52;2.40;99.90
17483;DHT22;8858;52.308;20.994;2023-11-19T03:01:23;2.50;99.90
17483;DHT22;8858;52.308;20.994;2023-11-19T03:03:59;2.50;99.90
17483;DHT22;8858;52.308;20.994;2023-11-19T03:06:30;2.50;99.90
17483;DHT22;8858;52.308;20.994;2023-11-19T03:08:59;2.50;99.90
17483;DHT22;8858;52.308;20.994;2023-11-19T03:11:32;2.50;99.90
17483;DHT22;8858;52.308;20.994;2023-11-19T03:14:02;2.50;99.90
17483;DHT22;8858;52.308;20.994;2023-11-19T03:16:36;2.50;99.90
17483;DHT22;8858;52.308;20.994;2023-11-19T03:19:08;2.50;99.90
17483;DHT22;8858;52.308;20.994;2023-11-19T03:21:36;2.50;99.90
17483;DHT22;8858;52.308;20.994;2023-11-19T03:24:05;2.50;99.90
17483;DHT22;8858;52.308;20.994;2023-11-19T03:26:35;2.50;99.90
17483;DHT22;8858;52.308;20.994;2023-11-19T03:29:04;2.50;99.90
17483;DHT22;8858;52.308;20.994;2023-11-19T03:31:41;2.50;99.90
17483;DHT22;8858;52.308;20.994;2023-11-19T03:34:12;2.50;99.90
17483;DHT22;8858;52.308;20.994;2023-11-19T03:36:41;2.50;99.90
17483;DHT22;8858;52.308;20.994;2023-11-19T03:39:10;2.50;99.90
17483;DHT22;8858;52.308;20.994;2023-11-19T03:41:38;2.50;99.90
17483;DHT22;8858;52.308;20.994;2023-11-19T03:44:10;2.50;99.90
17483;DHT22;8858;52.308;20.994;2023-11-19T03:46:41;2.50;99.90
17483;DHT22;8858;52.308;20.994;2023-11-19T03:49:34;2.50;99.90
17483;DHT22;8858;52.308;20.994;2023-11-19T03:52:03;2.50;99.90
17483;DHT22;8858;52.308;20.994;2023-11-19T03:54:45;2.50;99.90
17483;DHT22;8858;52.308;20.994;2023-11-19T03:57:38;2.60;99.90
17483;DHT22;8858;52.308;20.994;2023-11-19T04:00:07;2.50;99.90
17483;DHT22;8858;52.308;20.994;2023-11-19T04:02:42;2.60;99.90
17483;DHT22;8858;52.308;20.994;2023-11-19T04:05:10;2.50;99.90
17483;DHT22;8858;52.308;20.994;2023-11-19T04:07:39;2.60;99.90
17483;DHT22;8858;52.308;20.994;2023-11-19T04:10:08;2.50;99.90
17483;DHT22;8858;52.308;20.994;2023-11-19T04:12:37;2.60;99.90
17483;DHT22;8858;52.308;20.994;2023-11-19T04:15:06;2.60;99.90
17483;DHT22;8858;52.308;20.994;2023-11-19T04:17:36;2.60;99.90
17483;DHT22;8858;52.308;20.994;2023-11-19T04:20:07;2.60;99.90
17483;DHT22;8858;52.308;20.994;2023-11-19T04:22:40;2.60;99.90
17483;DHT22;8858;52.308;20.994;2023-11-19T04:25:32;2.60;99.90
17483;DHT22;8858;52.308;20.994;2023-11-19T04:28:00;2.60;99.90
17483;DHT22;8858;52.308;20.994;2023-11-19T04:30:29;2.70;99.90
17483;DHT22;8858;52.308;20.994;2023-11-19T04:33:02;2.60;99.90
17483;DHT22;8858;52.308;20.994;2023-11-19T04:35:31;2.60;99.90
17483;DHT22;8858;52.308;20.994;2023-11-19T04:38:00;2.60;99.90
17483;DHT22;8858;52.308;20.994;2023-11-19T04:40:29;2.70;99.90
17483;DHT22;8858;52.308;20.994;2023-11-19T04:42:58;2.60;99.90
17483;DHT22;8858;52.308;20.994;2023-11-19T04:45:26;2.70;99.90
17483;DHT22;8858;52.308;20.994;2023-11-19T04:47:54;2.70;99.90
17483;DHT22;8858;52.308;20.994;2023-11-19T04:50:26;2.60;99.90
17483;DHT22;8858;52.308;20.994;2023-11-19T04:52:57;2.60;99.90
17483;DHT22;8858;52.308;20.994;2023-11-19T04:55:27;2.60;99.90
17483;DHT22;8858;52.308;20.994;2023-11-19T04:57:55;2.60;99.90
17483;DHT22;8858;52.308;20.994;2023-11-19T05:00:24;2.60;99.90
17483;DHT22;8858;52.308;20.994;2023-11-19T05:02:56;2.70;99.90
17483;DHT22;8858;52.308;20.994;2023-11-19T05:05:26;2.60;99.90
17483;DHT22;8858;52.308;20.994;2023-11-19T05:07:57;2.70;99.90
17483;DHT22;8858;52.308;20.994;2023-11-19T05:10:25;2.70;99.90
17483;DHT22;8858;52.308;20.994;2023-11-19T05:12:54;2.70;99.90
17483;DHT22;8858;52.308;20.994;2023-11-19T05:15:23;2.70;99.90
17483;DHT22;8858;52.308;20.994;2023-11-19T05:17:52;2.70;99.90
17483;DHT22;8858;52.308;20.994;2023-11-19T05:20:21;2.70;99.90
17483;DHT22;8858;52.308;20.994;2023-11-19T05:22:50;2.80;99.90
17483;DHT22;8858;52.308;20.994;2023-11-19T05:25:25;2.70;99.90
17483;DHT22;8858;52.308;20.994;2023-11-19T05:27:54;2.80;99.90
17483;DHT22;8858;52.308;20.994;2023-11-19T05:30:22;2.70;99.90
17483;DHT22;8858;52.308;20.994;2023-11-19T05:32:50;2.70;99.90
17483;DHT22;8858;52.308;20.994;2023-11-19T05:35:18;2.80;99.90
17483;DHT22;8858;52.308;20.994;2023-11-19T05:37:48;2.70;99.90
17483;DHT22;8858;52.308;20.994;2023-11-19T05:40:21;2.70;99.90
17483;DHT22;8858;52.308;20.994;2023-11-19T05:42:51;2.70;99.90
17483;DHT22;8858;52.308;20.994;2023-11-19T05:45:19;2.70;99.90
17483;DHT22;8858;52.308;20.994;2023-11-19T05:47:48;2.70;99.90
17483;DHT22;8858;52.308;20.994;2023-11-19T05:50:16;2.80;99.90
17483;DHT22;8858;52.308;20.994;2023-11-19T05:52:48;2.70;99.90
17483;DHT22;8858;52.308;20.994;2023-11-19T05:55:16;2.70;99.90
17483;DHT22;8858;52.308;20.994;2023-11-19T05:57:45;2.70;99.90
17483;DHT22;8858;52.308;20.994;2023-11-19T06:00:15;2.80;99.90
17483;DHT22;8858;52.308;20.994;2023-11-19T06:02:45;2.80;99.90
17483;DHT22;8858;52.308;20.994;2023-11-19T06:05:16;2.80;99.90
17483;DHT22;8858;52.308;20.994;2023-11-19T06:07:45;2.80;99.90
17483;DHT22;8858;52.308;20.994;2023-11-19T06:10:13;2.80;99.90
17483;DHT22;8858;52.308;20.994;2023-11-19T06:12:47;2.80;99.90
17483;DHT22;8858;52.308;20.994;2023-11-19T06:15:26;2.80;99.90
17483;DHT22;8858;52.308;20.994;2023-11-19T06:17:55;2.80;99.90
17483;DHT22;8858;52.308;20.994;2023-11-19T06:20:27;2.80;99.90
17483;DHT22;8858;52.308;20.994;2023-11-19T06:23:09;2.80;99.90
17483;DHT22;8858;52.308;20.994;2023-11-19T06:25:37;2.80;99.90
17483;DHT22;8858;52.308;20.994;2023-11-19T06:28:06;2.80;99.90
17483;DHT22;8858;52.308;20.994;2023-11-19T06:31:00;2.80;99.90
17483;DHT22;8858;52.308;20.994;2023-11-19T06:33:28;2.80;99.90
17483;DHT22;8858;52.308;20.994;2023-11-19T06:35:59;2.80;99.90
17483;DHT22;8858;52.308;20.994;2023-11-19T06:38:28;2.80;99.90
17483;DHT22;8858;52.308;20.994;2023-11-19T06:40:57;2.80;99.90
17483;DHT22;8858;52.308;20.994;2023-11-19T06:43:26;2.80;99.90
17483;DHT22;8858;52.308;20.994;2023-11-19T06:46:15;2.80;99.90
17483;DHT22;8858;52.308;20.994;2023-11-19T06:48:44;2.80;99.90
17483;DHT22;8858;52.308;20.994;2023-11-19T06:51:13;2.90;99.90
17483;DHT22;8858;52.308;20.994;2023-11-19T06:53:42;2.80;99.90
17483;DHT22;8858;52.308;20.994;2023-11-19T06:56:20;2.90;99.90
17483;DHT22;8858;52.308;20.994;2023-11-19T06:58:49;2.90;99.90
17483;DHT22;8858;52.308;20.994;2023-11-19T07:01:18;2.90;99.90
17483;DHT22;8858;52.308;20.994;2023-11-19T07:03:48;2.90;99.90
17483;DHT22;8858;52.308;20.994;2023-11-19T07:06:17;2.90;99.90
17483;DHT22;8858;52.308;20.994;2023-11-19T07:08:46;2.90;99.90
17483;DHT22;8858;52.308;20.994;2023-11-19T07:11:17;2.90;99.90
17483;DHT22;8858;52.308;20.994;2023-11-19T07:13:45;3.00;99.90
17483;DHT22;8858;52.308;20.994;2023-11-19T07:16:14;3.00;99.90
17483;DHT22;8858;52.308;20.994;2023-11-19T07:18:44;3.00;99.90
17483;DHT22;8858;52.308;20.994;2023-11-19T07:21:18;3.00;99.90
17483;DHT22;8858;52.308;20.994;2023-11-19T07:23:47;3.00;99.90
17483;DHT22;8858;52.308;20.994;2023-11-19T07:26:18;3.00;99.90
17483;DHT22;8858;52.308;20.994;2023-11-19T07:28:47;3.10;99.90
17483;DHT22;8858;52.308;20.994;2023-11-19T07:31:16;3.10;99.90
17483;DHT22;8858;52.308;20.994;2023-11-19T07:33:48;3.10;99.90
17483;DHT22;8858;52.308;20.994;2023-11-19T07:36:19;3.10;99.90
17483;DHT22;8858;52.308;20.994;2023-11-19T07:38:48;3.10;99.90
17483;DHT22;8858;52.308;20.994;2023-11-19T07:41:20;3.10;99.90
17483;DHT22;8858;52.308;20.994;2023-11-19T07:43:48;3.10;99.90
17483;DHT22;8858;52.308;20.994;2023-11-19T07:46:17;3.10;99.90
17483;DHT22;8858;52.308;20.994;2023-11-19T07:48:47;3.10;99.90
17483;DHT22;8858;52.308;20.994;2023-11-19T07:51:16;3.10;99.90
17483;DHT22;8858;52.308;20.994;2023-11-19T07:53:48;3.10;99.90
17483;DHT22;8858;52.308;20.994;2023-11-19T07:56:16;3.10;99.90
17483;DHT22;8858;52.308;20.994;2023-11-19T07:58:44;3.00;99.90
17483;DHT22;8858;52.308;20.994;2023-11-19T08:01:15;3.00;99.90
17483;DHT22;8858;52.308;20.994;2023-11-19T08:03:44;3.00;99.90
17483;DHT22;8858;52.308;20.994;2023-11-19T08:06:16;3.00;99.90
17483;DHT22;8858;52.308;20.994;2023-11-19T08:08:44;3.00;99.90
17483;DHT22;8858;52.308;20.994;2023-11-19T08:11:15;3.10;99.90
17483;DHT22;8858;52.308;20.994;2023-11-19T08:13:44;3.10;99.90
17483;DHT22;8858;52.308;20.994;2023-11-19T08:16:13;3.10;99.90
17483;DHT22;8858;52.308;20.994;2023-11-19T08:18:44;3.10;99.90
17483;DHT22;8858;52.308;20.994;2023-11-19T08:21:12;3.10;99.90
17483;DHT22;8858;52.308;20.994;2023-11-19T08:23:42;3.10;99.90
17483;DHT22;8858;52.308;20.994;2023-11-19T08:26:10;3.20;99.90
17483;DHT22;8858;52.308;20.994;2023-11-19T08:28:39;3.20;99.90
17483;DHT22;8858;52.308;20.994;2023-11-19T08:31:12;3.20;99.90
17483;DHT22;8858;52.308;20.994;2023-11-19T08:33:40;3.20;99.90
17483;DHT22;8858;52.308;20.994;2023-11-19T08:36:09;3.20;99.90
17483;DHT22;8858;52.308;20.994;2023-11-19T08:38:44;3.30;99.90
17483;DHT22;8858;52.308;20.994;2023-11-19T08:41:15;3.20;99.90
17483;DHT22;8858;52.308;20.994;2023-11-19T08:43:45;3.30;99.90
17483;DHT22;8858;52.308;20.994;2023-11-19T08:46:13;3.30;99.90
17483;DHT22;8858;52.308;20.994;2023-11-19T08:48:42;3.30;99.90
17483;DHT22;8858;52.308;20.994;2023-11-19T08:51:10;3.30;99.90
17483;DHT22;8858;52.308;20.994;2023-11-19T08:53:39;3.40;99.90
17483;DHT22;8858;52.308;20.994;2023-11-19T08:56:09;3.40;99.90
17483;DHT22;8858;52.308;20.994;2023-11-19T08:58:38;3.40;99.90
17483;DHT22;8858;52.308;20.994;2023-11-19T09:01:06;3.40;99.90
17483;DHT22;8858;52.308;20.994;2023-11-19T09:03:36;3.40;99.90
17483;DHT22;8858;52.308;20.994;2023-11-19T09:06:05;3.40;99.90
17483;DHT22;8858;52.308;20.994;2023-11-19T09:08:36;3.40;99.90
17483;DHT22;8858;52.308;20.994;2023-11-19T09:11:07;3.40;99.90
17483;DHT22;8858;52.308;20.994;2023-11-19T09:13:38;3.40;99.90
17483;DHT22;8858;52.308;20.994;2023-11-19T09:16:07;3.50;99.90
17483;DHT22;8858;52.308;20.994;2023-11-19T09:18:39;3.50;99.90
17483;DHT22;8858;52.308;20.994;2023-11-19T09:21:10;3.50;99.90
17483;DHT22;8858;52.308;20.994;2023-11-19T09:23:39;3.50;99.90
17483;DHT22;8858;52.308;20.994;2023-11-19T09:26:32;3.50;99.90
17483;DHT22;8858;52.308;20.994;2023-11-19T09:29:01;3.60;99.90
17483;DHT22;8858;52.308;20.994;2023-11-19T09:31:30;3.50;99.90
17483;DHT22;8858;52.308;20.994;2023-11-19T09:34:02;3.60;99.90
17483;DHT22;8858;52.308;20.994;2023-11-19T09:36:30;3.60;99.90
17483;DHT22;8858;52.308;20.994;2023-11-19T09:38:58;3.60;99.90
17483;DHT22;8858;52.308;20.994;2023-11-19T09:41:27;3.60;99.90
17483;DHT22;8858;52.308;20.994;2023-11-19T09:43:56;3.70;99.90
17483;DHT22;8858;52.308;20.994;2023-11-19T09:46:26;3.70;99.90
17483;DHT22;8858;52.308;20.994;2023-11-19T09:48:57;3.70;99.90
17483;DHT22;8858;52.308;20.994;2023-11-19T09:51:27;3.70;99.90
17483;DHT22;8858;52.308;20.994;2023-11-19T09:53:55;3.60;99.90
17483;DHT22;8858;52.308;20.994;2023-11-19T09:56:25;3.60;99.90
17483;DHT22;8858;52.308;20.994;2023-11-19T09:58:54;3.60;99.90
17483;DHT22;8858;52.308;20.994;2023-11-19T10:01:25;3.60;99.90
17483;DHT22;8858;52.308;20.994;2023-11-19T10:03:56;3.60;99.90
17483;DHT22;8858;52.308;20.994;2023-11-19T10:06:25;3.60;99.90
17483;DHT22;8858;52.308;20.994;2023-11-19T10:08:54;3.60;99.90
17483;DHT22;8858;52.308;20.994;2023-11-19T10:11:24;3.60;99.90
17483;DHT22;8858;52.308;20.994;2023-11-19T10:13:54;3.60;99.90
17483;DHT22;8858;52.308;20.994;2023-11-19T10:16:29;3.60;99.90
17483;DHT22;8858;52.308;20.994;2023-11-19T10:19:00;3.60;99.90
17483;DHT22;8858;52.308;20.994;2023-11-19T10:21:29;3.60;99.90
17483;DHT22;8858;52.308;20.994;2023-11-19T10:24:01;3.70;99.90
17483;DHT22;8858;52.308;20.994;2023-11-19T10:26:30;3.60;99.90
17483;DHT22;8858;52.308;20.994;2023-11-19T10:29:03;3.60;99.90
17483;DHT22;8858;52.308;20.994;2023-11-19T10:31:33;3.60;99.90
17483;DHT22;8858;52.308;20.994;2023-11-19T10:34:02;3.60;99.90
17483;DHT22;8858;52.308;20.994;2023-11-19T10:36:38;3.60;99.90
17483;DHT22;8858;52.308;20.994;2023-11-19T10:39:08;3.70;99.90
17483;DHT22;8858;52.308;20.994;2023-11-19T10:41:37;3.70;99.90
17483;DHT22;8858;52.308;20.994;2023-11-19T10:44:06;3.70;99.90
17483;DHT22;8858;52.308;20.994;2023-11-19T10:46:41;3.70;99.90
17483;DHT22;8858;52.308;20.994;2023-11-19T10:49:11;3.70;99.90
17483;DHT22;8858;52.308;20.994;2023-11-19T10:51:44;3.70;99.90
17483;DHT22;8858;52.308;20.994;2023-11-19T10:54:15;3.70;99.90
17483;DHT22;8858;52.308;20.994;2023-11-19T10:56:53;3.70;99.90
17483;DHT22;8858;52.308;20.994;2023-11-19T10:59:24;3.70;99.90
17483;DHT22;8858;52.308;20.994;2023-11-19T11:02:03;3.70;99.90
17483;DHT22;8858;52.308;20.994;2023-11-19T11:04:39;3.70;99.90
17483;DHT22;8858;52.308;20.994;2023-11-19T11:07:14;3.70;99.90
17483;DHT22;8858;52.308;20.994;2023-11-19T11:09:44;3.70;99.90
17483;DHT22;8858;52.308;20.994;2023-11-19T11:12:18;3.70;99.90
17483;DHT22;8858;52.308;20.994;2023-11-19T11:14:51;3.70;99.90
17483;DHT22;8858;52.308;20.994;2023-11-19T11:17:24;3.70;99.90
17483;DHT22;8858;52.308;20.994;2023-11-19T11:19:55;3.70;99.90
17483;DHT22;8858;52.308;20.994;2023-11-19T11:22:25;3.70;99.90
17483;DHT22;8858;52.308;20.994;2023-11-19T11:25:13;3.70;99.90
17483;DHT22;8858;52.308;20.994;2023-11-19T11:27:57;3.70;99.90
17483;DHT22;8858;52.308;20.994;2023-11-19T11:30:35;3.70;99.90
17483;DHT22;8858;52.308;20.994;2023-11-19T11:33:20;3.70;99.90
17483;DHT22;8858;52.308;20.994;2023-11-19T11:36:01;3.70;99.90
17483;DHT22;8858;52.308;20.994;2023-11-19T11:38:36;3.60;99.90
17483;DHT22;8858;52.308;20.994;2023-11-19T11:41:19;3.60;99.90
17483;DHT22;8858;52.308;20.994;2023-11-19T11:43:52;3.60;99.90
17483;DHT22;8858;52.308;20.994;2023-11-19T11:46:53;3.60;99.90
17483;DHT22;8858;52.308;20.994;2023-11-19T11:49:27;3.60;99.90
17483;DHT22;8858;52.308;20.994;2023-11-19T11:52:01;3.60;99.90
17483;DHT22;8858;52.308;20.994;2023-11-19T11:54:31;3.60;99.90
17483;DHT22;8858;52.308;20.994;2023-11-19T11:57:08;3.60;99.90
17483;DHT22;8858;52.308;20.994;2023-11-19T11:59:48;3.50;99.90
17483;DHT22;8858;52.308;20.994;2023-11-19T12:02:18;3.60;99.90
17483;DHT22;8858;52.308;20.994;2023-11-19T12:04:50;3.60;99.90
17483;DHT22;8858;52.308;20.994;2023-11-19T12:07:22;3.60;99.90
17483;DHT22;8858;52.308;20.994;2023-11-19T12:09:52;3.60;99.90
17483;DHT22;8858;52.308;20.994;2023-11-19T12:12:25;3.60;99.90
17483;DHT22;8858;52.308;20.994;2023-11-19T12:15:05;3.60;99.90
17483;DHT22;8858;52.308;20.994;2023-11-19T12:17:43;3.60;99.90
17483;DHT22;8858;52.308;20.994;2023-11-19T12:20:15;3.60;99.90
17483;DHT22;8858;52.308;20.994;2023-11-19T12:23:04;3.60;99.90
17483;DHT22;8858;52.308;20.994;2023-11-19T12:25:34;3.60;99.90
17483;DHT22;8858;52.308;20.994;2023-11-19T12:28:04;3.60;99.90
17483;DHT22;8858;52.308;20.994;2023-11-19T12:30:33;3.60;99.90
17483;DHT22;8858;52.308;20.994;2023-11-19T12:33:08;3.50;99.90
17483;DHT22;8858;52.308;20.994;2023-11-19T12:35:40;3.50;99.90
17483;DHT22;8858;52.308;20.994;2023-11-19T12:38:18;3.50;99.90
17483;DHT22;8858;52.308;20.994;2023-11-19T12:40:47;3.50;99.90
17483;DHT22;8858;52.308;20.994;2023-11-19T12:43:22;3.50;99.90
17483;DHT22;8858;52.308;20.994;2023-11-19T12:45:50;3.50;99.90
17483;DHT22;8858;52.308;20.994;2023-11-19T12:48:18;3.50;99.90
17483;DHT22;8858;52.308;20.994;2023-11-19T12:50:55;3.60;99.90
17483;DHT22;8858;52.308;20.994;2023-11-19T12:53:25;3.60;99.90
17483;DHT22;8858;52.308;20.994;2023-11-19T12:55:54;3.60;99.90
17483;DHT22;8858;52.308;20.994;2023-11-19T12:58:29;3.60;99.90
17483;DHT22;8858;52.308;20.994;2023-11-19T13:01:01;3.50;99.90
17483;DHT22;8858;52.308;20.994;2023-11-19T13:03:31;3.50;99.90
17483;DHT22;8858;52.308;20.994;2023-11-19T13:06:06;3.50;99.90
17483;DHT22;8858;52.308;20.994;2023-11-19T13:08:39;3.60;99.90
17483;DHT22;8858;52.308;20.994;2023-11-19T13:11:09;3.60;99.90
17483;DHT22;8858;52.308;20.994;2023-11-19T13:13:56;3.60;99.90
17483;DHT22;8858;52.308;20.994;2023-11-19T13:16:28;3.50;99.90
17483;DHT22;8858;52.308;20.994;2023-11-19T13:18:57;3.50;99.90
17483;DHT22;8858;52.308;20.994;2023-11-19T13:21:27;3.50;99.90
17483;DHT22;8858;52.308;20.994;2023-11-19T13:23:57;3.60;99.90
17483;DHT22;8858;52.308;20.994;2023-11-19T13:26:26;3.50;99.90
17483;DHT22;8858;52.308;20.994;2023-11-19T13:28:58;3.60;99.90
17483;DHT22;8858;52.308;20.994;2023-11-19T13:31:26;3.60;99.90
17483;DHT22;8858;52.308;20.994;2023-11-19T13:33:55;3.60;99.90
17483;DHT22;8858;52.308;20.994;2023-11-19T13:36:26;3.60;99.90
17483;DHT22;8858;52.308;20.994;2023-11-19T13:38:55;3.60;99.90
17483;DHT22;8858;52.308;20.994;2023-11-19T13:41:27;3.60;99.90
17483;DHT22;8858;52.308;20.994;2023-11-19T13:43:55;3.50;99.90
17483;DHT22;8858;52.308;20.994;2023-11-19T13:46:24;3.50;99.90
17483;DHT22;8858;52.308;20.994;2023-11-19T13:48:52;3.50;99.90
17483;DHT22;8858;52.308;20.994;2023-11-19T13:51:20;3.50;99.90
17483;DHT22;8858;52.308;20.994;2023-11-19T13:53:53;3.50;99.90
17483;DHT22;8858;52.308;20.994;2023-11-19T13:56:22;3.50;99.90
17483;DHT22;8858;52.308;20.994;2023-11-19T13:58:51;3.50;99.90
17483;DHT22;8858;52.308;20.994;2023-11-19T14:01:20;3.50;99.90
17483;DHT22;8858;52.308;20.994;2023-11-19T14:03:55;3.40;99.90
17483;DHT22;8858;52.308;20.994;2023-11-19T14:06:25;3.40;99.90
17483;DHT22;8858;52.308;20.994;2023-11-19T14:08:54;3.40;99.90
17483;DHT22;8858;52.308;20.994;2023-11-19T14:11:23;3.40;99.90
17483;DHT22;8858;52.308;20.994;2023-11-19T14:13:51;3.40;99.90
17483;DHT22;8858;52.308;20.994;2023-11-19T14:16:19;3.40;99.90
17483;DHT22;8858;52.308;20.994;2023-11-19T14:18:48;3.40;99.90
17483;DHT22;8858;52.308;20.994;2023-11-19T14:21:17;3.40;99.90
17483;DHT22;8858;52.308;20.994;2023-11-19T14:23:45;3.30;99.90
17483;DHT22;8858;52.308;20.994;2023-11-19T14:26:15;3.30;99.90
17483;DHT22;8858;52.308;20.994;2023-11-19T14:28:43;3.30;99.90
17483;DHT22;8858;52.308;20.994;2023-11-19T14:31:14;3.30;99.90
17483;DHT22;8858;52.308;20.994;2023-11-19T14:33:47;3.30;99.90
17483;DHT22;8858;52.308;20.994;2023-11-19T14:36:16;3.30;99.90
17483;DHT22;8858;52.308;20.994;2023-11-19T14:38:44;3.20;99.90
17483;DHT22;8858;52.308;20.994;2023-11-19T14:41:15;3.20;99.90
17483;DHT22;8858;52.308;20.994;2023-11-19T14:43:43;3.30;99.90
17483;DHT22;8858;52.308;20.994;2023-11-19T14:46:11;3.30;99.90
17483;DHT22;8858;52.308;20.994;2023-11-19T14:48:41;3.30;99.90
17483;DHT22;8858;52.308;20.994;2023-11-19T14:51:09;3.20;99.90
17483;DHT22;8858;52.308;20.994;2023-11-19T14:53:37;3.20;99.90
17483;DHT22;8858;52.308;20.994;2023-11-19T14:56:10;3.20;99.90
17483;DHT22;8858;52.308;20.994;2023-11-19T14:58:41;3.20;99.90
17483;DHT22;8858;52.308;20.994;2023-11-19T15:01:12;3.20;99.90
17483;DHT22;8858;52.308;20.994;2023-11-19T15:03:41;3.20;99.90
17483;DHT22;8858;52.308;20.994;2023-11-19T15:06:15;3.20;99.90
17483;DHT22;8858;52.308;20.994;2023-11-19T15:08:44;3.20;99.90
17483;DHT22;8858;52.308;20.994;2023-11-19T15:11:13;3.20;99.90
17483;DHT22;8858;52.308;20.994;2023-11-19T15:13:44;3.30;99.90
17483;DHT22;8858;52.308;20.994;2023-11-19T15:16:13;3.30;99.90
17483;DHT22;8858;52.308;20.994;2023-11-19T15:18:45;3.30;99.90
17483;DHT22;8858;52.308;20.994;2023-11-19T15:21:13;3.30;99.90
17483;DHT22;8858;52.308;20.994;2023-11-19T15:23:42;3.30;99.90
17483;DHT22;8858;52.308;20.994;2023-11-19T15:26:10;3.30;99.90
17483;DHT22;8858;52.308;20.994;2023-11-19T15:28:39;3.30;99.90
17483;DHT22;8858;52.308;20.994;2023-11-19T15:31:11;3.30;99.90
17483;DHT22;8858;52.308;20.994;2023-11-19T15:33:39;3.30;99.90
17483;DHT22;8858;52.308;20.994;2023-11-19T15:36:08;3.30;99.90
17483;DHT22;8858;52.308;20.994;2023-11-19T15:38:36;3.30;99.90
17483;DHT22;8858;52.308;20.994;2023-11-19T15:41:07;3.30;99.90
17483;DHT22;8858;52.308;20.994;2023-11-19T15:43:40;3.30;99.90
17483;DHT22;8858;52.308;20.994;2023-11-19T15:46:11;3.30;99.90
17483;DHT22;8858;52.308;20.994;2023-11-19T15:48:39;3.30;99.90
17483;DHT22;8858;52.308;20.994;2023-11-19T15:51:10;3.30;99.90
17483;DHT22;8858;52.308;20.994;2023-11-19T15:53:39;3.30;99.90
17483;DHT22;8858;52.308;20.994;2023-11-19T15:56:08;3.30;99.90
17483;DHT22;8858;52.308;20.994;2023-11-19T15:58:37;3.30;99.90
17483;DHT22;8858;52.308;20.994;2023-11-19T16:01:06;3.30;99.90
17483;DHT22;8858;52.308;20.994;2023-11-19T16:03:40;3.30;99.90
17483;DHT22;8858;52.308;20.994;2023-11-19T16:06:12;3.30;99.90
17483;DHT22;8858;52.308;20.994;2023-11-19T16:08:41;3.30;99.90